sensor_id;sensor_type;location;lat;lon;timestamp;pressure;altitude;pressure_sealevel;temperature;humidity
75815;BME280;64451;45.574;14.224;2023-05-07T00:00:19;97007.44;;;9.73;100.00
75815;BME280;64451;45.574;14.224;2023-05-07T00:02:20;97005.63;;;9.64;100.00
75815;BME280;64451;45.574;14.224;2023-05-07T00:04:20;97005.34;;;9.65;100.00
75815;BME280;64451;45.574;14.224;2023-05-07T00:06:20;97020.28;;;9.87;100.00
75815;BME280;64451;45.574;14.224;2023-05-07T00:08:24;97019.03;;;9.69;100.00
75815;BME280;64451;45.574;14.224;2023-05-07T00:10:27;97017.81;;;9.90;100.00
75815;BME280;64451;45.574;14.224;2023-05-07T00:12:27;97016.22;;;9.84;100.00
75815;BME280;64451;45.574;14.224;2023-05-07T00:14:31;97012.78;;;9.78;100.00
75815;BME280;64451;45.574;14.224;2023-05-07T00:16:37;97019.78;;;9.74;100.00
75815;BME280;64451;45.574;14.224;2023-05-07T00:18:40;97014.47;;;9.69;100.00
75815;BME280;64451;45.574;14.224;2023-05-07T00:20:40;97019.66;;;9.50;100.00
75815;BME280;64451;45.574;14.224;2023-05-07T00:22:47;97015.94;;;9.46;100.00
75815;BME280;64451;45.574;14.224;2023-05-07T00:24:50;97019.94;;;9.49;100.00
75815;BME280;64451;45.574;14.224;2023-05-07T00:26:53;97014.41;;;9.25;100.00
75815;BME280;64451;45.574;14.224;2023-05-07T00:28:56;97021.13;;;9.22;100.00
75815;BME280;64451;45.574;14.224;2023-05-07T00:30:56;97016.31;;;9.14;100.00
75815;BME280;64451;45.574;14.224;2023-05-07T00:35:08;97025.41;;;9.23;100.00
75815;BME280;64451;45.574;14.224;2023-05-07T00:37:15;97020.72;;;9.49;100.00
75815;BME280;64451;45.574;14.224;2023-05-07T00:39:24;97021.25;;;9.51;100.00
75815;BME280;64451;45.574;14.224;2023-05-07T00:41:31;97013.53;;;9.45;100.00
75815;BME280;64451;45.574;14.224;2023-05-07T00:43:31;97015.66;;;9.43;100.00
75815;BME280;64451;45.574;14.224;2023-05-07T00:45:33;97017.06;;;9.35;100.00
75815;BME280;64451;45.574;14.224;2023-05-07T00:47:36;97014.25;;;8.96;100.00
75815;BME280;64451;45.574;14.224;2023-05-07T00:49:44;97009.22;;;8.69;100.00
75815;BME280;64451;45.574;14.224;2023-05-07T00:51:46;97011.91;;;8.64;100.00
75815;BME280;64451;45.574;14.224;2023-05-07T00:53:47;97007.56;;;8.83;100.00
75815;BME280;64451;45.574;14.224;2023-05-07T00:55:50;97002.00;;;8.49;100.00
75815;BME280;64451;45.574;14.224;2023-05-07T00:57:53;97006.81;;;8.32;100.00
75815;BME280;64451;45.574;14.224;2023-05-07T00:59:54;97007.09;;;8.20;100.00
75815;BME280;64451;45.574;14.224;2023-05-07T01:02:03;97000.13;;;8.04;100.00
75815;BME280;64451;45.574;14.224;2023-05-07T01:04:06;96997.69;;;7.97;100.00
75815;BME280;64451;45.574;14.224;2023-05-07T01:06:07;97012.13;;;7.71;100.00
75815;BME280;64451;45.574;14.224;2023-05-07T01:08:12;97006.16;;;7.43;100.00
75815;BME280;64451;45.574;14.224;2023-05-07T01:10:17;97006.44;;;7.47;100.00
75815;BME280;64451;45.574;14.224;2023-05-07T01:12:29;97009.69;;;7.69;100.00
75815;BME280;64451;45.574;14.224;2023-05-07T01:14:39;97003.00;;;7.67;100.00
75815;BME280;64451;45.574;14.224;2023-05-07T01:16:39;97007.59;;;7.71;100.00
75815;BME280;64451;45.574;14.224;2023-05-07T01:18:46;97003.00;;;7.77;100.00
75815;BME280;64451;45.574;14.224;2023-05-07T01:20:54;97001.44;;;7.81;100.00
75815;BME280;64451;45.574;14.224;2023-05-07T01:23:06;97008.94;;;7.84;100.00
75815;BME280;64451;45.574;14.224;2023-05-07T01:25:07;97001.81;;;7.22;100.00
75815;BME280;64451;45.574;14.224;2023-05-07T01:27:15;96999.13;;;7.12;100.00
75815;BME280;64451;45.574;14.224;2023-05-07T01:29:21;97001.22;;;7.10;100.00
75815;BME280;64451;45.574;14.224;2023-05-07T01:31:25;96998.56;;;7.10;100.00
75815;BME280;64451;45.574;14.224;2023-05-07T01:33:41;96999.13;;;7.17;100.00
75815;BME280;64451;45.574;14.224;2023-05-07T01:35:54;97000.75;;;7.28;100.00
75815;BME280;64451;45.574;14.224;2023-05-07T01:37:56;97004.28;;;7.39;100.00
75815;BME280;64451;45.574;14.224;2023-05-07T01:39:57;97000.22;;;7.26;100.00
75815;BME280;64451;45.574;14.224;2023-05-07T01:42:07;97001.28;;;7.25;100.00
75815;BME280;64451;45.574;14.224;2023-05-07T01:44:16;97000.47;;;7.24;100.00
75815;BME280;64451;45.574;14.224;2023-05-07T01:46:18;96999.66;;;7.19;100.00
75815;BME280;64451;45.574;14.224;2023-05-07T01:48:28;97001.59;;;7.44;100.00
75815;BME280;64451;45.574;14.224;2023-05-07T01:50:33;97016.09;;;7.53;100.00
75815;BME280;64451;45.574;14.224;2023-05-07T01:52:42;96998.16;;;7.48;100.00
75815;BME280;64451;45.574;14.224;2023-05-07T01:54:43;97006.44;;;7.52;100.00
75815;BME280;64451;45.574;14.224;2023-05-07T01:56:46;96999.22;;;7.52;100.00
75815;BME280;64451;45.574;14.224;2023-05-07T01:59:04;97007.47;;;7.36;100.00
75815;BME280;64451;45.574;14.224;2023-05-07T02:01:11;97008.16;;;7.00;100.00
75815;BME280;64451;45.574;14.224;2023-05-07T02:03:11;97007.84;;;6.92;100.00
75815;BME280;64451;45.574;14.224;2023-05-07T02:14:10;97005.91;;;7.45;100.00
75815;BME280;64451;45.574;14.224;2023-05-07T02:28:58;96995.75;;;6.79;100.00
75815;BME280;64451;45.574;14.224;2023-05-07T02:31:16;97000.81;;;6.75;100.00
75815;BME280;64451;45.574;14.224;2023-05-07T02:33:16;96994.91;;;6.73;100.00
75815;BME280;64451;45.574;14.224;2023-05-07T02:35:17;96989.88;;;6.82;100.00
75815;BME280;64451;45.574;14.224;2023-05-07T02:39:57;96987.47;;;6.81;100.00
75815;BME280;64451;45.574;14.224;2023-05-07T02:42:10;96991.13;;;6.69;100.00
75815;BME280;64451;45.574;14.224;2023-05-07T02:44:19;96994.00;;;6.58;100.00
75815;BME280;64451;45.574;14.224;2023-05-07T02:46:20;96990.38;;;6.32;100.00
75815;BME280;64451;45.574;14.224;2023-05-07T02:48:41;96989.75;;;6.19;100.00
75815;BME280;64451;45.574;14.224;2023-05-07T02:50:42;96987.38;;;6.23;100.00
75815;BME280;64451;45.574;14.224;2023-05-07T02:52:48;96990.06;;;6.23;100.00
75815;BME280;64451;45.574;14.224;2023-05-07T03:02:05;96982.97;;;6.07;100.00
75815;BME280;64451;45.574;14.224;2023-05-07T03:04:20;96985.91;;;6.05;100.00
75815;BME280;64451;45.574;14.224;2023-05-07T03:06:33;96996.88;;;6.09;100.00
75815;BME280;64451;45.574;14.224;2023-05-07T03:10:55;96999.25;;;6.05;100.00
75815;BME280;64451;45.574;14.224;2023-05-07T03:15:14;96998.19;;;6.06;100.00
75815;BME280;64451;45.574;14.224;2023-05-07T03:17:24;97004.34;;;6.07;100.00
75815;BME280;64451;45.574;14.224;2023-05-07T03:19:27;96999.00;;;6.07;100.00
75815;BME280;64451;45.574;14.224;2023-05-07T03:21:34;97005.09;;;6.02;100.00
75815;BME280;64451;45.574;14.224;2023-05-07T03:23:52;97005.91;;;6.03;100.00
75815;BME280;64451;45.574;14.224;2023-05-07T03:28:11;97012.81;;;5.99;100.00
75815;BME280;64451;45.574;14.224;2023-05-07T03:30:17;97013.19;;;5.85;100.00
75815;BME280;64451;45.574;14.224;2023-05-07T03:32:32;97014.47;;;5.78;100.00
75815;BME280;64451;45.574;14.224;2023-05-07T03:37:12;97008.66;;;5.86;100.00
75815;BME280;64451;45.574;14.224;2023-05-07T03:46:03;97011.34;;;6.13;100.00
75815;BME280;64451;45.574;14.224;2023-05-07T03:50:21;97018.16;;;5.99;100.00
75815;BME280;64451;45.574;14.224;2023-05-07T03:52:25;97016.03;;;6.01;100.00
75815;BME280;64451;45.574;14.224;2023-05-07T03:54:35;97015.03;;;6.07;100.00
75815;BME280;64451;45.574;14.224;2023-05-07T03:56:38;97025.28;;;6.20;100.00
75815;BME280;64451;45.574;14.224;2023-05-07T04:01:09;97025.06;;;6.27;100.00
75815;BME280;64451;45.574;14.224;2023-05-07T04:08:08;97032.72;;;6.50;100.00
75815;BME280;64451;45.574;14.224;2023-05-07T04:10:30;97032.03;;;6.65;100.00
75815;BME280;64451;45.574;14.224;2023-05-07T04:12:43;97040.06;;;6.70;100.00
75815;BME280;64451;45.574;14.224;2023-05-07T04:17:12;97042.53;;;6.76;100.00
75815;BME280;64451;45.574;14.224;2023-05-07T04:19:44;97034.19;;;6.68;100.00
75815;BME280;64451;45.574;14.224;2023-05-07T04:21:48;97033.63;;;6.66;100.00
75815;BME280;64451;45.574;14.224;2023-05-07T04:24:07;97031.06;;;6.81;100.00
75815;BME280;64451;45.574;14.224;2023-05-07T04:26:10;97034.94;;;7.06;100.00
75815;BME280;64451;45.574;14.224;2023-05-07T04:28:20;97041.97;;;7.22;100.00
75815;BME280;64451;45.574;14.224;2023-05-07T04:30:57;97047.91;;;7.34;100.00
75815;BME280;64451;45.574;14.224;2023-05-07T04:32:58;97046.88;;;7.45;100.00
75815;BME280;64451;45.574;14.224;2023-05-07T04:35:13;97055.44;;;7.47;100.00
75815;BME280;64451;45.574;14.224;2023-05-07T04:37:17;97051.44;;;7.50;100.00
75815;BME280;64451;45.574;14.224;2023-05-07T04:39:36;97044.19;;;7.40;100.00
75815;BME280;64451;45.574;14.224;2023-05-07T04:41:51;97042.06;;;7.52;100.00
75815;BME280;64451;45.574;14.224;2023-05-07T04:44:06;97038.84;;;7.50;100.00
75815;BME280;64451;45.574;14.224;2023-05-07T04:46:12;97039.38;;;7.47;100.00
75815;BME280;64451;45.574;14.224;2023-05-07T04:48:22;97036.22;;;7.66;100.00
75815;BME280;64451;45.574;14.224;2023-05-07T04:50:23;97038.34;;;7.69;100.00
75815;BME280;64451;45.574;14.224;2023-05-07T04:58:53;97041.34;;;7.93;100.00
75815;BME280;64451;45.574;14.224;2023-05-07T05:05:13;97048.09;;;8.82;100.00
75815;BME280;64451;45.574;14.224;2023-05-07T05:07:14;97054.47;;;9.11;100.00
75815;BME280;64451;45.574;14.224;2023-05-07T05:09:14;97044.25;;;9.13;100.00
75815;BME280;64451;45.574;14.224;2023-05-07T05:11:28;97046.56;;;9.40;100.00
75815;BME280;64451;45.574;14.224;2023-05-07T05:13:28;97052.66;;;9.61;100.00
75815;BME280;64451;45.574;14.224;2023-05-07T05:15:29;97056.81;;;9.88;100.00
75815;BME280;64451;45.574;14.224;2023-05-07T05:17:40;97055.06;;;10.12;100.00
75815;BME280;64451;45.574;14.224;2023-05-07T05:19:40;97056.28;;;10.64;100.00
75815;BME280;64451;45.574;14.224;2023-05-07T05:21:41;97058.19;;;10.92;97.12
75815;BME280;64451;45.574;14.224;2023-05-07T05:23:50;97052.88;;;11.11;93.56
75815;BME280;64451;45.574;14.224;2023-05-07T05:29:17;97053.25;;;11.23;91.26
75815;BME280;64451;45.574;14.224;2023-05-07T05:33:35;97051.75;;;11.60;90.76
75815;BME280;64451;45.574;14.224;2023-05-07T05:35:36;97047.47;;;11.78;87.73
75815;BME280;64451;45.574;14.224;2023-05-07T05:37:39;97046.81;;;11.67;89.66
75815;BME280;64451;45.574;14.224;2023-05-07T05:44:29;97043.97;;;11.77;88.08
75815;BME280;64451;45.574;14.224;2023-05-07T05:46:35;97041.13;;;11.69;89.02
75815;BME280;64451;45.574;14.224;2023-05-07T05:48:39;97045.28;;;11.61;89.80
75815;BME280;64451;45.574;14.224;2023-05-07T05:50:41;97044.97;;;10.91;95.03
75815;BME280;64451;45.574;14.224;2023-05-07T05:53:14;97047.22;;;11.56;94.96
75815;BME280;64451;45.574;14.224;2023-05-07T05:55:28;97049.84;;;12.03;91.43
75815;BME280;64451;45.574;14.224;2023-05-07T05:57:29;97048.38;;;12.30;89.66
75815;BME280;64451;45.574;14.224;2023-05-07T05:59:46;97058.59;;;12.33;89.32
75815;BME280;64451;45.574;14.224;2023-05-07T06:01:47;97058.16;;;12.26;89.61
75815;BME280;64451;45.574;14.224;2023-05-07T06:04:06;97047.69;;;12.38;88.80
75815;BME280;64451;45.574;14.224;2023-05-07T06:06:06;97052.03;;;12.20;89.44
75815;BME280;64451;45.574;14.224;2023-05-07T06:08:13;97059.66;;;12.83;88.40
75815;BME280;64451;45.574;14.224;2023-05-07T06:10:16;97053.22;;;13.26;86.87
75815;BME280;64451;45.574;14.224;2023-05-07T06:12:16;97059.13;;;13.28;84.85
75815;BME280;64451;45.574;14.224;2023-05-07T06:17:28;97049.38;;;12.99;88.86
75815;BME280;64451;45.574;14.224;2023-05-07T06:19:28;97048.66;;;12.93;88.70
75815;BME280;64451;45.574;14.224;2023-05-07T06:24:14;97055.25;;;13.34;87.28
75815;BME280;64451;45.574;14.224;2023-05-07T06:26:14;97054.19;;;13.85;86.09
75815;BME280;64451;45.574;14.224;2023-05-07T06:28:18;97049.63;;;14.08;87.01
75815;BME280;64451;45.574;14.224;2023-05-07T06:30:21;97050.44;;;14.30;85.94
75815;BME280;64451;45.574;14.224;2023-05-07T06:32:24;97043.78;;;14.14;84.81
75815;BME280;64451;45.574;14.224;2023-05-07T06:34:43;97044.50;;;14.42;85.28
75815;BME280;64451;45.574;14.224;2023-05-07T06:36:56;97041.00;;;15.66;81.60
75815;BME280;64451;45.574;14.224;2023-05-07T06:41:15;97038.03;;;16.28;75.16
75815;BME280;64451;45.574;14.224;2023-05-07T06:43:27;97030.66;;;15.85;77.92
75815;BME280;64451;45.574;14.224;2023-05-07T06:45:43;97041.88;;;16.10;77.46
75815;BME280;64451;45.574;14.224;2023-05-07T06:52:04;97043.44;;;16.63;72.63
75815;BME280;64451;45.574;14.224;2023-05-07T06:54:20;97047.72;;;16.98;71.11
75815;BME280;64451;45.574;14.224;2023-05-07T06:56:26;97037.03;;;18.41;66.30
75815;BME280;64451;45.574;14.224;2023-05-07T07:03:00;97023.44;;;18.53;66.32
75815;BME280;64451;45.574;14.224;2023-05-07T07:05:07;97029.22;;;19.05;66.90
75815;BME280;64451;45.574;14.224;2023-05-07T07:07:13;97036.56;;;17.29;71.28
75815;BME280;64451;45.574;14.224;2023-05-07T07:09:32;97031.09;;;18.80;66.44
75815;BME280;64451;45.574;14.224;2023-05-07T07:11:32;97034.91;;;19.13;63.21
75815;BME280;64451;45.574;14.224;2023-05-07T07:13:41;97028.78;;;20.01;62.71
75815;BME280;64451;45.574;14.224;2023-05-07T07:15:46;97022.97;;;20.99;60.72
75815;BME280;64451;45.574;14.224;2023-05-07T07:17:46;97010.69;;;19.97;64.08
75815;BME280;64451;45.574;14.224;2023-05-07T07:20:24;97018.84;;;20.21;61.08
75815;BME280;64451;45.574;14.224;2023-05-07T07:22:27;97009.31;;;21.62;57.31
75815;BME280;64451;45.574;14.224;2023-05-07T07:31:30;97007.13;;;20.08;60.60
75815;BME280;64451;45.574;14.224;2023-05-07T07:33:43;97007.75;;;21.45;57.01
75815;BME280;64451;45.574;14.224;2023-05-07T07:35:59;97004.19;;;22.69;53.41
75815;BME280;64451;45.574;14.224;2023-05-07T07:38:05;97000.03;;;22.37;56.03
75815;BME280;64451;45.574;14.224;2023-05-07T07:40:12;97004.72;;;22.01;54.70
75815;BME280;64451;45.574;14.224;2023-05-07T07:42:24;97008.09;;;22.10;52.88
75815;BME280;64451;45.574;14.224;2023-05-07T07:46:27;97004.50;;;23.52;46.62
75815;BME280;64451;45.574;14.224;2023-05-07T07:48:39;97004.16;;;23.80;46.21
75815;BME280;64451;45.574;14.224;2023-05-07T07:56:47;96993.47;;;24.62;44.89
75815;BME280;64451;45.574;14.224;2023-05-07T08:04:58;96990.78;;;25.03;44.06
75815;BME280;64451;45.574;14.224;2023-05-07T08:09:07;96998.34;;;23.13;49.05
75815;BME280;64451;45.574;14.224;2023-05-07T08:13:10;96995.97;;;22.50;52.93
75815;BME280;64451;45.574;14.224;2023-05-07T08:15:17;96991.22;;;22.28;51.42
75815;BME280;64451;45.574;14.224;2023-05-07T08:17:38;96996.25;;;22.26;52.09
75815;BME280;64451;45.574;14.224;2023-05-07T08:22:03;96990.41;;;23.31;49.68
75815;BME280;64451;45.574;14.224;2023-05-07T08:26:31;96984.56;;;22.87;50.76
75815;BME280;64451;45.574;14.224;2023-05-07T08:28:44;96981.31;;;24.03;50.81
75815;BME280;64451;45.574;14.224;2023-05-07T08:30:47;96990.41;;;22.85;51.78
75815;BME280;64451;45.574;14.224;2023-05-07T08:34:59;96984.06;;;23.27;52.42
75815;BME280;64451;45.574;14.224;2023-05-07T08:41:36;96970.66;;;24.61;47.17
75815;BME280;64451;45.574;14.224;2023-05-07T08:43:40;96974.03;;;24.48;46.91
75815;BME280;64451;45.574;14.224;2023-05-07T08:46:06;96969.69;;;23.87;47.60
75815;BME280;64451;45.574;14.224;2023-05-07T08:48:41;96959.25;;;24.29;45.73
75815;BME280;64451;45.574;14.224;2023-05-07T08:50:41;96960.25;;;24.14;44.62
75815;BME280;64451;45.574;14.224;2023-05-07T08:57:07;96962.53;;;24.08;42.40
75815;BME280;64451;45.574;14.224;2023-05-07T08:59:10;96963.84;;;24.85;41.99
75815;BME280;64451;45.574;14.224;2023-05-07T09:03:32;96958.59;;;24.73;38.69
75815;BME280;64451;45.574;14.224;2023-05-07T09:05:48;96964.88;;;24.36;41.42
75815;BME280;64451;45.574;14.224;2023-05-07T09:08:02;96952.75;;;24.41;43.66
75815;BME280;64451;45.574;14.224;2023-05-07T09:10:20;96946.72;;;25.51;42.03
75815;BME280;64451;45.574;14.224;2023-05-07T09:12:21;96960.13;;;26.18;39.30
75815;BME280;64451;45.574;14.224;2023-05-07T09:14:37;96958.25;;;24.75;36.30
75815;BME280;64451;45.574;14.224;2023-05-07T09:17:07;96960.97;;;25.15;40.58
75815;BME280;64451;45.574;14.224;2023-05-07T09:19:07;96947.66;;;25.17;40.41
75815;BME280;64451;45.574;14.224;2023-05-07T09:21:18;96959.44;;;24.81;42.08
75815;BME280;64451;45.574;14.224;2023-05-07T09:23:20;96952.81;;;25.77;41.19
75815;BME280;64451;45.574;14.224;2023-05-07T09:25:42;96960.00;;;26.94;37.50
75815;BME280;64451;45.574;14.224;2023-05-07T09:27:45;96955.31;;;27.48;37.70
75815;BME280;64451;45.574;14.224;2023-05-07T09:29:51;96958.06;;;27.20;32.42
75815;BME280;64451;45.574;14.224;2023-05-07T09:31:58;96951.78;;;27.23;35.16
75815;BME280;64451;45.574;14.224;2023-05-07T09:34:01;96950.97;;;27.51;35.50
75815;BME280;64451;45.574;14.224;2023-05-07T09:36:09;96953.31;;;27.59;33.92
75815;BME280;64451;45.574;14.224;2023-05-07T09:38:21;96956.09;;;27.56;38.96
75815;BME280;64451;45.574;14.224;2023-05-07T09:40:24;96952.94;;;27.64;40.82
75815;BME280;64451;45.574;14.224;2023-05-07T09:42:30;96951.53;;;26.37;39.24
75815;BME280;64451;45.574;14.224;2023-05-07T09:44:43;96946.94;;;26.77;35.60
75815;BME280;64451;45.574;14.224;2023-05-07T09:46:57;96948.38;;;26.35;38.73
75815;BME280;64451;45.574;14.224;2023-05-07T09:54:04;96940.34;;;26.05;37.41
75815;BME280;64451;45.574;14.224;2023-05-07T09:56:17;96943.22;;;25.57;40.95
75815;BME280;64451;45.574;14.224;2023-05-07T09:58:28;96946.97;;;25.86;38.97
75815;BME280;64451;45.574;14.224;2023-05-07T10:00:32;96951.09;;;25.59;39.12
75815;BME280;64451;45.574;14.224;2023-05-07T10:02:35;96942.59;;;26.65;37.65
75815;BME280;64451;45.574;14.224;2023-05-07T10:05:05;96957.19;;;24.90;39.61
75815;BME280;64451;45.574;14.224;2023-05-07T10:07:07;96951.16;;;25.66;41.95
75815;BME280;64451;45.574;14.224;2023-05-07T10:09:08;96944.91;;;25.21;42.20
75815;BME280;64451;45.574;14.224;2023-05-07T10:11:10;96950.06;;;25.26;38.97
75815;BME280;64451;45.574;14.224;2023-05-07T10:13:19;96948.72;;;25.06;42.81
75815;BME280;64451;45.574;14.224;2023-05-07T10:15:28;96944.00;;;25.58;40.88
75815;BME280;64451;45.574;14.224;2023-05-07T10:17:35;96953.94;;;25.18;43.24
75815;BME280;64451;45.574;14.224;2023-05-07T10:19:44;96951.72;;;24.56;40.48
75815;BME280;64451;45.574;14.224;2023-05-07T10:21:56;96942.47;;;24.72;44.61
75815;BME280;64451;45.574;14.224;2023-05-07T10:24:12;96943.16;;;26.09;41.72
75815;BME280;64451;45.574;14.224;2023-05-07T10:26:24;96930.25;;;26.34;40.16
75815;BME280;64451;45.574;14.224;2023-05-07T10:28:47;96942.53;;;25.19;39.63
75815;BME280;64451;45.574;14.224;2023-05-07T10:36:10;96942.44;;;24.68;42.02
75815;BME280;64451;45.574;14.224;2023-05-07T10:38:22;96934.31;;;25.78;40.39
75815;BME280;64451;45.574;14.224;2023-05-07T10:40:23;96936.69;;;25.76;39.66
75815;BME280;64451;45.574;14.224;2023-05-07T10:42:38;96935.59;;;24.96;41.31
75815;BME280;64451;45.574;14.224;2023-05-07T10:44:39;96931.44;;;25.09;39.17
75815;BME280;64451;45.574;14.224;2023-05-07T10:49:13;96928.31;;;25.14;41.19
75815;BME280;64451;45.574;14.224;2023-05-07T10:51:21;96926.16;;;24.22;40.31
75815;BME280;64451;45.574;14.224;2023-05-07T10:53:25;96933.81;;;24.36;41.47
75815;BME280;64451;45.574;14.224;2023-05-07T10:55:27;96927.91;;;24.71;42.14
75815;BME280;64451;45.574;14.224;2023-05-07T10:59:33;96925.78;;;24.57;45.18
75815;BME280;64451;45.574;14.224;2023-05-07T11:02:10;96931.13;;;25.21;42.20
75815;BME280;64451;45.574;14.224;2023-05-07T11:04:29;96932.28;;;24.76;42.32
75815;BME280;64451;45.574;14.224;2023-05-07T11:06:31;96938.13;;;25.63;43.77
75815;BME280;64451;45.574;14.224;2023-05-07T11:08:56;96940.03;;;25.52;43.57
75815;BME280;64451;45.574;14.224;2023-05-07T11:10:57;96927.25;;;24.14;41.89
75815;BME280;64451;45.574;14.224;2023-05-07T11:12:58;96928.88;;;25.34;40.18
75815;BME280;64451;45.574;14.224;2023-05-07T11:15:12;96933.44;;;25.67;39.73
75815;BME280;64451;45.574;14.224;2023-05-07T11:17:22;96928.72;;;25.67;41.41
75815;BME280;64451;45.574;14.224;2023-05-07T11:21:41;96930.31;;;24.76;40.32
75815;BME280;64451;45.574;14.224;2023-05-07T11:28:19;96919.31;;;23.75;45.22
75815;BME280;64451;45.574;14.224;2023-05-07T11:30:22;96925.16;;;25.12;42.59
75815;BME280;64451;45.574;14.224;2023-05-07T11:36:54;96922.81;;;25.65;37.95
75815;BME280;64451;45.574;14.224;2023-05-07T11:39:24;96924.72;;;26.34;41.08
75815;BME280;64451;45.574;14.224;2023-05-07T11:41:48;96925.69;;;25.83;36.70
75815;BME280;64451;45.574;14.224;2023-05-07T11:44:03;96920.44;;;25.12;41.52
75815;BME280;64451;45.574;14.224;2023-05-07T11:48:43;96911.13;;;25.86;36.93
75815;BME280;64451;45.574;14.224;2023-05-07T11:51:03;96918.72;;;25.48;38.56
75815;BME280;64451;45.574;14.224;2023-05-07T11:53:25;96926.66;;;25.54;42.81
75815;BME280;64451;45.574;14.224;2023-05-07T11:55:25;96927.09;;;24.67;39.75
75815;BME280;64451;45.574;14.224;2023-05-07T11:57:33;96919.41;;;24.16;40.56
75815;BME280;64451;45.574;14.224;2023-05-07T11:59:56;96930.28;;;25.13;42.64
75815;BME280;64451;45.574;14.224;2023-05-07T12:06:06;96922.88;;;24.80;40.76
75815;BME280;64451;45.574;14.224;2023-05-07T12:12:58;96924.66;;;24.62;41.79
75815;BME280;64451;45.574;14.224;2023-05-07T12:17:14;96916.28;;;24.88;40.57
75815;BME280;64451;45.574;14.224;2023-05-07T12:19:18;96913.34;;;24.67;42.67
75815;BME280;64451;45.574;14.224;2023-05-07T12:21:22;96921.38;;;24.86;45.19
75815;BME280;64451;45.574;14.224;2023-05-07T12:23:36;96923.91;;;24.31;43.62
75815;BME280;64451;45.574;14.224;2023-05-07T12:25:52;96926.44;;;24.44;45.97
75815;BME280;64451;45.574;14.224;2023-05-07T12:27:52;96916.91;;;23.74;43.33
75815;BME280;64451;45.574;14.224;2023-05-07T12:30:24;96927.81;;;24.30;41.97
75815;BME280;64451;45.574;14.224;2023-05-07T12:32:25;96925.72;;;23.87;44.86
75815;BME280;64451;45.574;14.224;2023-05-07T12:34:35;96921.91;;;23.95;42.75
75815;BME280;64451;45.574;14.224;2023-05-07T12:41:07;96929.44;;;23.71;43.52
75815;BME280;64451;45.574;14.224;2023-05-07T12:45:55;96920.25;;;23.90;45.07
75815;BME280;64451;45.574;14.224;2023-05-07T12:47:56;96919.13;;;23.65;43.98
75815;BME280;64451;45.574;14.224;2023-05-07T12:50:10;96923.53;;;23.69;44.30
75815;BME280;64451;45.574;14.224;2023-05-07T12:52:22;96916.78;;;23.40;44.67
75815;BME280;64451;45.574;14.224;2023-05-07T12:57:11;96922.78;;;23.46;43.39
75815;BME280;64451;45.574;14.224;2023-05-07T13:01:37;96915.94;;;23.10;42.92
75815;BME280;64451;45.574;14.224;2023-05-07T13:03:40;96919.69;;;22.56;43.54
75815;BME280;64451;45.574;14.224;2023-05-07T13:05:47;96915.81;;;22.37;43.50
75815;BME280;64451;45.574;14.224;2023-05-07T13:08:06;96914.63;;;22.00;45.31
75815;BME280;64451;45.574;14.224;2023-05-07T13:10:12;96915.69;;;22.11;47.42
75815;BME280;64451;45.574;14.224;2023-05-07T13:16:35;96920.19;;;22.61;45.33
75815;BME280;64451;45.574;14.224;2023-05-07T13:18:51;96908.84;;;22.21;45.55
75815;BME280;64451;45.574;14.224;2023-05-07T13:21:01;96911.44;;;22.13;46.92
75815;BME280;64451;45.574;14.224;2023-05-07T13:25:19;96910.88;;;21.69;47.23
75815;BME280;64451;45.574;14.224;2023-05-07T13:27:22;96909.41;;;22.10;48.75
75815;BME280;64451;45.574;14.224;2023-05-07T13:29:38;96910.69;;;22.36;47.11
75815;BME280;64451;45.574;14.224;2023-05-07T13:31:54;96910.22;;;22.53;45.74
75815;BME280;64451;45.574;14.224;2023-05-07T13:33:55;96904.44;;;22.81;45.56
75815;BME280;64451;45.574;14.224;2023-05-07T13:35:56;96911.25;;;23.37;46.50
75815;BME280;64451;45.574;14.224;2023-05-07T13:38:03;96895.41;;;23.26;44.54
75815;BME280;64451;45.574;14.224;2023-05-07T13:40:06;96901.44;;;23.09;46.56
75815;BME280;64451;45.574;14.224;2023-05-07T13:44:37;96913.84;;;23.52;46.02
75815;BME280;64451;45.574;14.224;2023-05-07T13:46:48;96900.94;;;23.57;42.42
75815;BME280;64451;45.574;14.224;2023-05-07T13:48:51;96915.97;;;22.67;43.43
75815;BME280;64451;45.574;14.224;2023-05-07T13:50:52;96921.34;;;22.60;44.16
75815;BME280;64451;45.574;14.224;2023-05-07T13:52:55;96920.56;;;22.40;45.47
75815;BME280;64451;45.574;14.224;2023-05-07T13:57:13;96918.22;;;22.20;45.25
75815;BME280;64451;45.574;14.224;2023-05-07T13:59:29;96918.22;;;22.20;46.41
75815;BME280;64451;45.574;14.224;2023-05-07T14:03:44;96917.13;;;22.43;47.66
75815;BME280;64451;45.574;14.224;2023-05-07T14:05:45;96920.19;;;22.84;43.62
75815;BME280;64451;45.574;14.224;2023-05-07T14:08:00;96916.19;;;22.17;44.36
75815;BME280;64451;45.574;14.224;2023-05-07T14:12:04;96917.44;;;21.84;43.47
75815;BME280;64451;45.574;14.224;2023-05-07T14:14:05;96925.03;;;21.55;44.63
75815;BME280;64451;45.574;14.224;2023-05-07T14:18:33;96929.38;;;21.56;44.87
75815;BME280;64451;45.574;14.224;2023-05-07T14:20:46;96922.66;;;21.54;44.51
75815;BME280;64451;45.574;14.224;2023-05-07T14:23:05;96929.31;;;21.72;45.23
75815;BME280;64451;45.574;14.224;2023-05-07T14:28:20;96922.88;;;21.45;43.44
75815;BME280;64451;45.574;14.224;2023-05-07T14:32:24;96925.19;;;21.27;45.00
75815;BME280;64451;45.574;14.224;2023-05-07T14:34:27;96929.75;;;21.39;44.30
75815;BME280;64451;45.574;14.224;2023-05-07T14:36:28;96934.63;;;21.30;43.11
75815;BME280;64451;45.574;14.224;2023-05-07T14:38:39;96928.19;;;21.38;43.22
75815;BME280;64451;45.574;14.224;2023-05-07T14:40:54;96928.28;;;21.10;43.50
75815;BME280;64451;45.574;14.224;2023-05-07T14:45:02;96950.06;;;21.22;45.85
75815;BME280;64451;45.574;14.224;2023-05-07T14:47:08;96943.63;;;20.99;44.83